Time;durP1;ratioP1;P1;durP2;ratioP2;P2;SDS_P1;SDS_P2;PMS_P1;PMS_P2;Temp;Humidity;BMP_temperature;BMP_pressure;BME280_temperature;BME280_humidity;BME280_pressure;Samples;Min_cycle;Max_cycle;Signal;HPM_P1;HPM_P2
2023/04/25 00:02:13;;;;;;;3.05;1.30;;;14.50;99.90;;;;;;1872333;76;21159;-83
2023/04/25 00:05:06;;;;;;;1.98;1.20;;;14.50;99.90;;;;;;1872605;76;21055;-84
2023/04/25 00:07:59;;;;;;;1.80;1.10;;;14.40;99.90;;;;;;1887054;75;21086;-83
2023/04/25 00:10:51;;;;;;;2.22;1.10;;;14.40;99.90;;;;;;1873639;75;21067;-83
2023/04/25 00:13:42;;;;;;;3.10;1.10;;;14.40;99.90;;;;;;1894021;75;21095;-83
2023/04/25 00:16:34;;;;;;;2.60;1.25;;;14.40;99.90;;;;;;1893193;75;21104;-83
2023/04/25 00:19:28;;;;;;;2.40;1.17;;;14.50;99.90;;;;;;1888775;75;21153;-83
2023/04/25 00:22:19;;;;;;;1.98;1.20;;;14.50;99.90;;;;;;1883521;75;21523;-82
2023/04/25 00:25:11;;;;;;;3.25;1.45;;;14.40;99.90;;;;;;1883067;75;21099;-83
2023/04/25 00:28:02;;;;;;;3.27;1.25;;;14.40;99.90;;;;;;1882673;75;21570;-83
2023/04/25 00:30:53;;;;;;;2.75;1.30;;;14.30;99.90;;;;;;1873354;76;21129;-83
2023/04/25 00:33:44;;;;;;;1.90;1.10;;;14.40;99.90;;;;;;1888382;75;21102;-83
2023/04/25 00:36:36;;;;;;;1.72;1.25;;;14.30;99.90;;;;;;1883996;75;21048;-83
2023/04/25 00:39:27;;;;;;;2.27;1.17;;;14.30;99.90;;;;;;1903603;75;21177;-83
2023/04/25 00:45:00;;;;;;;3.83;1.35;;;14.30;99.90;;;;;;1955554;72;22231;-83
2023/04/25 00:47:53;;;;;;;1.77;1.12;;;14.20;99.90;;;;;;1895782;74;21105;-83
2023/04/25 00:50:47;;;;;;;2.75;1.10;;;14.20;99.90;;;;;;1894771;75;21095;-82
2023/04/25 00:53:38;;;;;;;2.00;1.32;;;14.20;99.90;;;;;;1898512;75;21551;-83
2023/04/25 00:56:30;;;;;;;1.82;1.17;;;14.10;99.90;;;;;;1897549;75;21098;-84
2023/04/25 00:59:21;;;;;;;1.80;1.20;;;14.10;99.90;;;;;;1895066;75;21056;-85
2023/04/25 01:02:13;;;;;;;2.67;1.30;;;14.10;99.90;;;;;;1894372;75;21418;-85
2023/04/25 01:05:05;;;;;;;1.52;1.07;;;14.10;99.90;;;;;;1897279;75;21168;-85
2023/04/25 01:07:58;;;;;;;1.77;1.25;;;14.00;99.90;;;;;;1898766;75;21156;-83
2023/04/25 01:13:31;;;;;;;4.15;1.27;;;13.90;99.90;;;;;;1951847;72;22157;-82
2023/04/25 01:16:24;;;;;;;2.67;1.30;;;14.00;99.90;;;;;;1902384;75;21197;-82
2023/04/25 01:21:56;;;;;;;1.47;1.10;;;14.10;99.90;;;;;;1936025;72;22178;-82
2023/04/25 01:24:47;;;;;;;3.40;1.32;;;14.10;99.90;;;;;;1888177;75;21172;-84
2023/04/25 01:27:40;;;;;;;4.58;1.30;;;14.10;99.90;;;;;;1899173;75;21468;-83
2023/04/25 01:30:32;;;;;;;1.92;1.15;;;14.00;99.90;;;;;;1884216;76;21133;-83
2023/04/25 01:33:24;;;;;;;2.33;1.02;;;13.90;99.90;;;;;;1906574;75;21204;-83
2023/04/25 01:36:17;;;;;;;2.22;1.20;;;13.90;99.90;;;;;;1905890;75;21118;-83
2023/04/25 01:39:09;;;;;;;2.20;1.17;;;14.00;99.90;;;;;;1903594;75;21115;-83
2023/04/25 01:42:01;;;;;;;3.35;1.35;;;14.00;99.90;;;;;;1898150;75;21530;-83
2023/04/25 01:44:54;;;;;;;2.37;1.02;;;13.90;99.90;;;;;;1894830;75;21582;-83
2023/04/25 01:47:48;;;;;;;2.75;1.25;;;13.90;99.90;;;;;;1894983;75;21561;-83
2023/04/25 01:50:40;;;;;;;2.47;1.37;;;13.90;99.90;;;;;;1896191;75;21088;-83
2023/04/25 01:53:32;;;;;;;2.20;1.05;;;13.90;99.90;;;;;;1899661;75;21264;-83
2023/04/25 01:56:24;;;;;;;1.98;0.90;;;13.80;99.90;;;;;;1910192;74;21086;-83
2023/04/25 01:59:16;;;;;;;2.90;1.00;;;13.80;99.90;;;;;;1905336;75;21133;-83
2023/04/25 02:02:19;;;;;;;2.65;1.05;;;13.70;99.90;;;;;;1859961;75;21180;-83
2023/04/25 02:05:11;;;;;;;1.25;0.70;;;13.70;99.90;;;;;;1895372;75;21142;-83
2023/04/25 02:08:05;;;;;;;1.92;1.10;;;13.70;99.90;;;;;;1900071;75;21522;-83
2023/04/25 02:10:57;;;;;;;2.62;1.30;;;13.50;99.90;;;;;;1917108;75;21110;-83
2023/04/25 02:13:50;;;;;;;5.20;1.32;;;13.50;99.90;;;;;;1894985;75;21097;-83
2023/04/25 02:16:51;;;;;;;2.52;1.22;;;13.50;99.90;;;;;;1891178;75;21094;-83
2023/04/25 02:19:42;;;;;;;2.75;1.12;;;13.50;99.90;;;;;;1897212;75;21073;-83
2023/04/25 02:22:35;;;;;;;3.87;1.25;;;13.40;99.90;;;;;;1898838;75;21130;-83
2023/04/25 02:25:28;;;;;;;4.37;1.37;;;13.40;99.90;;;;;;1895369;75;21704;-83
2023/04/25 02:31:00;;;;;;;3.92;1.20;;;13.50;99.90;;;;;;1953518;72;23387;-82
2023/04/25 02:36:46;;;;;;;3.08;1.27;;;13.40;99.90;;;;;;1965832;72;22256;-82
2023/04/25 02:39:39;;;;;;;3.30;1.17;;;13.30;99.90;;;;;;1917200;75;21109;-82
2023/04/25 02:42:30;;;;;;;3.12;1.12;;;13.30;99.90;;;;;;1917219;75;21609;-82
2023/04/25 02:45:22;;;;;;;2.30;1.10;;;13.30;99.90;;;;;;1917178;75;21139;-82
2023/04/25 02:48:13;;;;;;;3.52;1.30;;;13.20;99.90;;;;;;1917163;75;21586;-82
2023/04/25 02:51:05;;;;;;;3.17;1.12;;;13.20;99.90;;;;;;1917237;75;21702;-82
2023/04/25 02:53:56;;;;;;;3.60;1.10;;;13.20;99.90;;;;;;1916780;73;21107;-82
2023/04/25 02:56:47;;;;;;;1.30;1.07;;;13.20;99.90;;;;;;1933644;73;21103;-82
2023/04/25 02:59:40;;;;;;;2.22;1.45;;;13.20;99.90;;;;;;1917261;75;21181;-82
2023/04/25 03:02:32;;;;;;;1.77;1.10;;;13.20;99.90;;;;;;1924596;73;21135;-82
2023/04/25 03:05:24;;;;;;;3.35;1.07;;;13.10;99.90;;;;;;1927812;73;21096;-82
2023/04/25 03:08:15;;;;;;;1.72;1.10;;;13.20;99.90;;;;;;1930915;73;21117;-84
2023/04/25 03:11:06;;;;;;;3.83;1.20;;;13.10;99.90;;;;;;1931251;73;21121;-83
2023/04/25 03:14:09;;;;;;;2.10;1.12;;;13.00;99.90;;;;;;1919501;73;21126;-82
2023/04/25 03:17:00;;;;;;;4.58;1.40;;;12.90;99.90;;;;;;1816664;78;21132;-82
2023/04/25 03:19:52;;;;;;;8.18;1.87;;;12.90;99.90;;;;;;1819098;78;21129;-82
2023/04/25 03:22:43;;;;;;;2.25;1.32;;;12.80;99.90;;;;;;1823840;78;21662;-83
2023/04/25 03:25:34;;;;;;;3.55;1.17;;;12.80;99.90;;;;;;1820819;79;21591;-83
2023/04/25 03:28:27;;;;;;;2.83;1.35;;;12.70;99.90;;;;;;1816904;79;21124;-83
2023/04/25 03:31:19;;;;;;;3.65;1.25;;;12.70;99.90;;;;;;1821199;79;21112;-82
2023/04/25 03:34:10;;;;;;;2.20;1.20;;;12.60;99.90;;;;;;1816585;79;21243;-82
2023/04/25 03:37:02;;;;;;;2.85;1.20;;;12.60;99.90;;;;;;1820520;79;21077;-82
2023/04/25 03:39:55;;;;;;;2.60;1.30;;;12.50;99.90;;;;;;1816262;79;21183;-83
2023/04/25 03:42:49;;;;;;;3.12;1.40;;;12.50;99.90;;;;;;1816219;79;21246;-82
2023/04/25 03:45:41;;;;;;;3.65;1.57;;;12.50;99.90;;;;;;1816127;79;21198;-83
2023/04/25 03:48:32;;;;;;;5.50;1.98;;;12.40;99.90;;;;;;1817632;79;21077;-83
2023/04/25 03:51:24;;;;;;;3.17;1.80;;;12.40;99.90;;;;;;1822536;78;21134;-82
2023/04/25 03:54:16;;;;;;;5.42;2.02;;;12.40;99.90;;;;;;1818640;78;21077;-83
2023/04/25 03:57:10;;;;;;;3.02;1.70;;;12.30;99.90;;;;;;1818169;78;21136;-83
2023/04/25 04:00:03;;;;;;;5.58;2.02;;;12.30;99.90;;;;;;1814763;79;21081;-83
2023/04/25 04:02:56;;;;;;;2.37;1.40;;;12.30;99.90;;;;;;1752310;81;21163;-82
2023/04/25 04:05:48;;;;;;;2.12;1.45;;;12.30;99.90;;;;;;1821619;78;21626;-82
2023/04/25 04:08:40;;;;;;;2.30;1.17;;;12.40;99.90;;;;;;1818247;79;21232;-82
2023/04/25 04:11:33;;;;;;;2.17;1.20;;;12.60;99.90;;;;;;1823778;78;21119;-82
2023/04/25 04:14:25;;;;;;;3.22;1.50;;;12.60;99.90;;;;;;1820828;78;21154;-82
2023/04/25 04:17:17;;;;;;;1.57;0.90;;;12.60;99.90;;;;;;1827145;78;21101;-83
2023/04/25 04:20:10;;;;;;;2.27;1.50;;;12.50;99.90;;;;;;1781293;80;21191;-82
2023/04/25 04:23:03;;;;;;;2.40;1.30;;;12.40;99.90;;;;;;1775516;80;21198;-83
2023/04/25 04:25:56;;;;;;;4.85;1.57;;;12.40;99.90;;;;;;1777989;80;21116;-82
2023/04/25 04:28:54;;;;;;;3.42;1.90;;;12.40;99.90;;;;;;1788156;80;21571;-83
2023/04/25 04:31:52;;;;;;;5.12;1.75;;;12.30;99.90;;;;;;1749360;81;21210;-83
2023/04/25 04:34:44;;;;;;;2.98;1.65;;;12.40;99.90;;;;;;1784286;80;21172;-83
2023/04/25 04:37:37;;;;;;;5.05;1.15;;;12.30;99.90;;;;;;1740554;82;21130;-82
2023/04/25 04:40:31;;;;;;;3.92;1.55;;;12.20;99.90;;;;;;1775244;80;21147;-82
2023/04/25 04:43:30;;;;;;;4.45;1.65;;;12.20;99.90;;;;;;1763242;80;21115;-82
2023/04/25 04:46:41;;;;;;;4.20;1.90;;;12.10;99.90;;;;;;1759663;81;21127;-82
2023/04/25 04:49:51;;;;;;;1.95;1.27;;;12.10;99.90;;;;;;1759154;81;21326;-82
2023/04/25 04:52:47;;;;;;;3.45;2.00;;;12.10;99.90;;;;;;1777770;80;21163;-82
2023/04/25 04:55:52;;;;;;;2.83;1.80;;;12.00;99.90;;;;;;1780620;80;21080;-82
2023/04/25 04:58:48;;;;;;;4.12;1.42;;;12.10;99.90;;;;;;1772090;80;21229;-82
2023/04/25 05:01:56;;;;;;;3.08;1.50;;;12.20;99.90;;;;;;1768050;80;21089;-82
2023/04/25 05:04:51;;;;;;;4.62;1.72;;;12.20;99.90;;;;;;1787191;80;21132;-82
2023/04/25 05:08:00;;;;;;;5.47;1.85;;;12.20;99.90;;;;;;1788276;80;21432;-82
2023/04/25 05:13:50;;;;;;;4.85;1.82;;;12.30;99.90;;;;;;1946553;72;22166;-84
2023/04/25 05:17:00;;;;;;;4.80;1.57;;;12.30;99.90;;;;;;1906473;75;21159;-82
2023/04/25 05:19:54;;;;;;;3.95;1.90;;;12.20;99.90;;;;;;1906435;75;21102;-84
2023/04/25 05:22:59;;;;;;;3.75;1.60;;;12.10;99.90;;;;;;1904337;75;21110;-83
2023/04/25 05:25:55;;;;;;;5.95;2.10;;;12.20;99.90;;;;;;1901183;75;21102;-83
2023/04/25 05:29:00;;;;;;;3.17;1.80;;;12.20;99.90;;;;;;1896837;75;21099;-83
2023/04/25 05:34:38;;;;;;;6.03;2.00;;;12.20;99.90;;;;;;1928388;72;22601;-78
2023/04/25 05:37:32;;;;;;;3.65;1.70;;;12.30;99.90;;;;;;1890578;75;21106;-80
2023/04/25 05:43:10;;;;;;;4.30;1.75;;;12.40;99.90;;;;;;1949468;72;22303;-80
2023/04/25 05:46:16;;;;;;;3.60;1.90;;;12.40;99.90;;;;;;1906108;75;21117;-78
2023/04/25 05:49:10;;;;;;;2.95;1.77;;;12.40;99.90;;;;;;1896695;75;21091;-78
2023/04/25 05:52:06;;;;;;;5.35;1.65;;;12.40;99.90;;;;;;1875923;73;21657;-80
2023/04/25 05:57:54;;;;;;;3.72;1.92;;;12.40;99.90;;;;;;1941543;72;22283;-78
2023/04/25 06:00:46;;;;;;;2.75;1.47;;;12.40;99.90;;;;;;1918691;73;21174;-78
2023/04/25 06:03:38;;;;;;;4.12;1.70;;;12.30;99.90;;;;;;1938801;73;21112;-78
2023/04/25 06:06:30;;;;;;;6.28;1.98;;;12.30;99.90;;;;;;1932892;73;21184;-78
2023/04/25 06:09:22;;;;;;;4.00;1.57;;;12.40;99.90;;;;;;1914972;75;21405;-77
2023/04/25 06:12:15;;;;;;;3.95;1.62;;;12.40;99.90;;;;;;1916077;75;21147;-77
2023/04/25 06:15:08;;;;;;;4.25;1.65;;;12.30;99.90;;;;;;1916378;75;21075;-77
2023/04/25 06:18:02;;;;;;;3.55;1.60;;;12.30;99.90;;;;;;1916547;75;21059;-80
2023/04/25 06:20:54;;;;;;;4.90;1.82;;;12.40;99.90;;;;;;1916927;75;21114;-78
2023/04/25 06:26:27;;;;;;;4.60;1.65;;;12.40;99.90;;;;;;1953591;72;22275;-79
2023/04/25 06:29:21;;;;;;;2.52;1.40;;;12.40;99.90;;;;;;1905235;75;21504;-79
2023/04/25 06:32:14;;;;;;;4.25;2.00;;;12.40;99.90;;;;;;1904654;75;21167;-79
2023/04/25 06:35:07;;;;;;;3.52;1.80;;;12.40;99.90;;;;;;1904547;75;21534;-79
2023/04/25 06:37:59;;;;;;;6.03;1.82;;;12.50;99.90;;;;;;1904646;75;21227;-78
2023/04/25 06:40:51;;;;;;;5.03;1.80;;;12.50;99.90;;;;;;1904442;75;21152;-78
2023/04/25 06:43:43;;;;;;;2.62;1.70;;;12.50;99.90;;;;;;1904491;75;21063;-78
2023/04/25 06:46:37;;;;;;;4.45;1.55;;;12.60;99.90;;;;;;1915990;74;21167;-79
2023/04/25 06:49:29;;;;;;;5.80;2.02;;;12.70;99.90;;;;;;1915747;74;21729;-79
2023/04/25 06:55:04;;;;;;;5.80;2.37;;;12.60;99.90;;;;;;1957136;72;22773;-77
2023/04/25 06:58:07;;;;;;;4.97;1.62;;;12.60;99.90;;;;;;1903926;75;21078;-78
2023/04/25 07:01:16;;;;;;;5.53;1.40;;;12.60;99.90;;;;;;1896045;75;21149;-79
2023/04/25 07:04:08;;;;;;;4.30;1.72;;;12.60;99.90;;;;;;1894884;75;21051;-79
2023/04/25 07:07:03;;;;;;;4.10;1.80;;;12.60;99.90;;;;;;1894781;75;21092;-78
2023/04/25 07:10:09;;;;;;;4.90;2.05;;;12.60;99.90;;;;;;1894906;75;21184;-78
2023/04/25 07:13:01;;;;;;;4.92;2.15;;;12.60;99.90;;;;;;1899414;75;21122;-78
2023/04/25 07:15:53;;;;;;;5.53;1.98;;;12.60;99.90;;;;;;1896626;75;21063;-78
2023/04/25 07:18:47;;;;;;;4.40;1.92;;;12.60;99.90;;;;;;1894628;75;21111;-79
2023/04/25 07:21:39;;;;;;;5.78;2.27;;;12.60;99.90;;;;;;1894730;75;21164;-78
2023/04/25 07:24:31;;;;;;;4.85;2.33;;;12.60;99.90;;;;;;1896983;75;21113;-78
2023/04/25 07:27:23;;;;;;;5.53;2.15;;;12.70;99.90;;;;;;1898961;75;21047;-77
2023/04/25 07:30:34;;;;;;;4.92;1.90;;;12.70;99.90;;;;;;1897625;75;21206;-78
2023/04/25 07:33:26;;;;;;;4.03;1.87;;;12.70;99.90;;;;;;1894637;75;21083;-77
2023/04/25 07:36:18;;;;;;;5.37;2.30;;;12.70;99.90;;;;;;1894524;75;21091;-78
2023/04/25 07:39:09;;;;;;;6.58;2.25;;;12.70;99.90;;;;;;1895847;75;21945;-77
2023/04/25 07:42:02;;;;;;;5.53;1.95;;;12.70;99.90;;;;;;1883614;75;21209;-77
2023/04/25 07:44:54;;;;;;;4.92;1.80;;;12.80;99.90;;;;;;1894362;75;21106;-78
2023/04/25 07:47:45;;;;;;;4.45;1.72;;;12.70;99.90;;;;;;1894961;75;21098;-78
2023/04/25 07:50:37;;;;;;;3.65;1.80;;;12.90;99.90;;;;;;1896179;75;21091;-78
2023/04/25 07:53:29;;;;;;;6.05;2.22;;;13.00;99.90;;;;;;1915922;75;21157;-78
2023/04/25 07:56:22;;;;;;;3.12;1.80;;;12.90;99.90;;;;;;1896438;75;21120;-78
2023/04/25 07:59:15;;;;;;;5.30;2.45;;;13.00;99.90;;;;;;1908845;75;21114;-78
2023/04/25 08:02:08;;;;;;;2.85;1.47;;;13.10;99.90;;;;;;1885578;75;21357;-78
2023/04/25 08:05:00;;;;;;;4.55;1.82;;;13.20;99.90;;;;;;1916642;75;21147;-77
2023/04/25 08:07:52;;;;;;;6.15;2.02;;;13.10;99.90;;;;;;1896030;75;21128;-78
2023/04/25 08:10:44;;;;;;;5.70;1.72;;;13.00;99.90;;;;;;1893881;75;21102;-78
2023/04/25 08:13:36;;;;;;;3.30;1.85;;;13.00;99.90;;;;;;1894278;75;21163;-78
2023/04/25 08:16:28;;;;;;;5.30;2.10;;;13.00;99.90;;;;;;1897286;75;21113;-78
2023/04/25 08:19:20;;;;;;;5.22;1.90;;;12.90;99.90;;;;;;1897325;75;21087;-79
2023/04/25 08:22:12;;;;;;;5.55;2.02;;;13.00;99.90;;;;;;1894111;75;21090;-78
2023/04/25 08:25:09;;;;;;;5.70;2.50;;;13.00;99.90;;;;;;1894496;75;21095;-78
2023/04/25 08:28:02;;;;;;;4.87;2.00;;;13.00;99.90;;;;;;1894290;75;21239;-78
2023/04/25 08:30:55;;;;;;;4.03;1.87;;;13.10;99.90;;;;;;1898577;75;21105;-78
2023/04/25 08:33:49;;;;;;;4.90;2.27;;;13.20;99.90;;;;;;1896226;75;21063;-78
2023/04/25 08:36:48;;;;;;;5.10;2.30;;;13.40;99.90;;;;;;1894358;75;21091;-78
2023/04/25 08:39:48;;;;;;;4.45;2.25;;;13.40;99.90;;;;;;1891270;74;21104;-78
2023/04/25 08:43:03;;;;;;;4.65;2.10;;;13.30;99.90;;;;;;1894125;75;21184;-78
2023/04/25 08:45:56;;;;;;;4.33;1.82;;;13.20;99.90;;;;;;1894537;75;21203;-78
2023/04/25 08:48:49;;;;;;;5.05;2.05;;;13.30;99.90;;;;;;1897515;75;21180;-77
2023/04/25 08:51:45;;;;;;;4.33;2.10;;;13.30;99.90;;;;;;1883254;76;21133;-77
2023/04/25 08:54:38;;;;;;;3.85;2.17;;;13.30;99.90;;;;;;1906086;75;21106;-78
2023/04/25 08:57:32;;;;;;;3.72;1.75;;;13.50;99.90;;;;;;1921319;74;21549;-78
2023/04/25 09:00:24;;;;;;;6.08;2.05;;;13.60;99.90;;;;;;1920717;74;21128;-78
2023/04/25 09:03:16;;;;;;;3.15;1.77;;;13.60;99.90;;;;;;1898951;75;21098;-78
2023/04/25 09:06:11;;;;;;;4.10;2.20;;;13.60;99.90;;;;;;1911064;74;21176;-78
2023/04/25 09:09:06;;;;;;;6.17;2.00;;;13.70;99.90;;;;;;1910016;74;21565;-78
2023/04/25 09:11:59;;;;;;;4.60;1.75;;;13.80;99.90;;;;;;1910272;74;21066;-78
2023/04/25 09:15:06;;;;;;;5.33;1.87;;;13.90;99.90;;;;;;1912060;74;21114;-77
2023/04/25 09:18:28;;;;;;;3.85;1.90;;;13.90;99.90;;;;;;1890305;74;21615;-79
2023/04/25 09:21:23;;;;;;;5.12;1.90;;;14.20;99.90;;;;;;1919748;74;21114;-78
2023/04/25 09:24:15;;;;;;;2.50;1.40;;;14.30;99.90;;;;;;1915090;74;21160;-77
2023/04/25 09:27:08;;;;;;;3.83;2.00;;;14.40;99.90;;;;;;1910068;74;21124;-77
2023/04/25 09:30:01;;;;;;;3.85;1.45;;;14.50;99.90;;;;;;1910196;74;21094;-77
2023/04/25 09:32:58;;;;;;;4.25;1.90;;;14.50;99.90;;;;;;1900696;74;21125;-78
2023/04/25 09:35:54;;;;;;;3.45;1.67;;;14.60;99.90;;;;;;1912524;74;21146;-77
2023/04/25 09:38:47;;;;;;;;;;;14.50;99.90;;;;;;1917604;74;21157;-77
2023/04/25 09:41:42;;;;;;;3.60;1.60;;;14.40;99.90;;;;;;1922211;74;20208;-77
2023/04/25 09:44:34;;;;;;;4.00;1.50;;;14.40;99.90;;;;;;1921344;74;21132;-77
2023/04/25 09:47:28;;;;;;;2.65;1.50;;;14.50;99.90;;;;;;1920999;74;21296;-78
2023/04/25 09:50:20;;;;;;;1.92;1.32;;;14.60;99.90;;;;;;1916589;74;21587;-77
2023/04/25 09:53:13;;;;;;;3.80;1.50;;;14.80;99.90;;;;;;1919876;74;21172;-78
2023/04/25 09:56:08;;;;;;;4.60;1.60;;;14.70;99.90;;;;;;1921569;74;21189;-78
2023/04/25 09:59:00;;;;;;;3.05;1.42;;;14.80;99.90;;;;;;1902034;74;21098;-79
2023/04/25 10:01:51;;;;;;;3.00;1.60;;;15.10;99.90;;;;;;1932385;74;21098;-79
2023/04/25 10:07:28;;;;;;;3.12;1.32;;;15.00;99.90;;;;;;1944649;72;22307;-80
2023/04/25 10:13:05;;;;;;;3.33;1.70;;;14.90;99.90;;;;;;1958863;72;28811;-80
2023/04/25 10:15:58;;;;;;;2.67;1.52;;;15.10;99.90;;;;;;1917039;75;21090;-79
2023/04/25 10:18:50;;;;;;;5.03;1.60;;;15.10;99.90;;;;;;1939705;73;21188;-78
2023/04/25 10:21:47;;;;;;;3.70;1.65;;;15.20;99.90;;;;;;1916419;75;21179;-78
2023/04/25 10:24:40;;;;;;;2.83;1.70;;;15.30;99.90;;;;;;1916923;75;21175;-79
2023/04/25 10:27:32;;;;;;;3.87;1.57;;;15.20;99.90;;;;;;1933720;73;21171;-79
2023/04/25 10:30:23;;;;;;;4.20;1.50;;;15.10;99.90;;;;;;1939248;73;21125;-78
2023/04/25 10:33:21;;;;;;;3.62;1.40;;;15.00;99.90;;;;;;1916823;75;21117;-80
2023/04/25 10:36:14;;;;;;;2.55;1.50;;;14.80;99.90;;;;;;1916832;75;21127;-80
2023/04/25 10:39:08;;;;;;;3.02;1.50;;;14.80;99.90;;;;;;1936881;73;21272;-78
2023/04/25 10:42:02;;;;;;;3.25;1.65;;;14.70;99.90;;;;;;1916741;75;21103;-78
2023/04/25 10:45:06;;;;;;;5.53;1.65;;;14.80;99.90;;;;;;1926824;73;21051;-80
2023/04/25 10:47:57;;;;;;;5.58;1.77;;;14.90;99.90;;;;;;1928047;73;21059;-78
2023/04/25 10:50:49;;;;;;;5.67;1.67;;;15.20;99.90;;;;;;1925879;73;21100;-78
2023/04/25 10:53:41;;;;;;;3.10;1.35;;;15.20;99.90;;;;;;1916960;75;21094;-78
2023/04/25 10:56:39;;;;;;;3.15;1.62;;;15.30;99.90;;;;;;1916351;75;21166;-78
2023/04/25 10:59:40;;;;;;;3.40;1.60;;;15.50;99.90;;;;;;1938828;73;21126;-78
2023/04/25 11:02:32;;;;;;;2.85;1.20;;;15.30;99.90;;;;;;1916475;75;21111;-78
2023/04/25 11:05:30;;;;;;;2.58;1.40;;;15.20;99.90;;;;;;1939294;73;21630;-78
2023/04/25 11:11:04;;;;;;;4.15;1.47;;;15.10;99.90;;;;;;1957549;72;22147;-77
2023/04/25 11:13:56;;;;;;;3.05;1.50;;;15.20;99.90;;;;;;1894451;75;21110;-79
2023/04/25 11:16:47;;;;;;;3.02;1.40;;;15.10;99.90;;;;;;1894693;75;21607;-78
2023/04/25 11:19:38;;;;;;;3.12;1.07;;;15.20;99.90;;;;;;1896728;75;21526;-78
2023/04/25 11:22:30;;;;;;;2.42;1.40;;;15.30;99.90;;;;;;1898243;75;21097;-77
2023/04/25 11:25:23;;;;;;;2.62;1.40;;;15.40;99.90;;;;;;1894651;75;21083;-77
2023/04/25 11:28:16;;;;;;;2.00;1.15;;;15.60;99.90;;;;;;1894981;75;21300;-77
2023/04/25 11:31:09;;;;;;;3.62;1.40;;;15.80;99.90;;;;;;1894438;75;21117;-78
2023/04/25 11:34:03;;;;;;;1.40;1.00;;;15.70;99.90;;;;;;1900104;75;21110;-78
2023/04/25 11:36:55;;;;;;;4.70;1.37;;;15.80;98.90;;;;;;1883646;75;21104;-77
2023/04/25 11:39:47;;;;;;;2.58;1.00;;;15.80;99.50;;;;;;1890844;75;21102;-77
2023/04/25 11:42:40;;;;;;;3.22;1.40;;;16.00;99.90;;;;;;1894431;75;21180;-77
2023/04/25 11:45:33;;;;;;;3.70;1.50;;;16.10;99.90;;;;;;1917016;75;21052;-77
2023/04/25 11:48:24;;;;;;;3.10;1.62;;;16.00;99.90;;;;;;1917025;75;21534;-79
2023/04/25 11:51:17;;;;;;;2.40;1.47;;;16.00;99.90;;;;;;1885684;75;21398;-78
2023/04/25 11:54:08;;;;;;;4.67;1.55;;;15.80;99.90;;;;;;1887406;75;21145;-77
2023/04/25 11:57:01;;;;;;;2.95;1.37;;;15.80;99.90;;;;;;1896165;75;21124;-77
2023/04/25 11:59:52;;;;;;;3.77;1.75;;;15.70;99.90;;;;;;1884029;76;21183;-77
2023/04/25 12:02:45;;;;;;;2.92;1.35;;;15.60;99.90;;;;;;1906287;75;21595;-77
2023/04/25 12:05:37;;;;;;;2.17;1.35;;;15.50;99.90;;;;;;1906190;75;21176;-77
2023/04/25 12:08:29;;;;;;;4.80;1.67;;;15.60;99.90;;;;;;1906041;75;21172;-77
2023/04/25 12:11:24;;;;;;;4.90;1.65;;;15.80;99.90;;;;;;1912071;74;21341;-78
2023/04/25 12:14:23;;;;;;;2.70;1.62;;;15.90;99.90;;;;;;1912053;74;21801;-78
2023/04/25 12:17:15;;;;;;;5.83;1.50;;;15.90;99.90;;;;;;1910928;74;21114;-77
2023/04/25 12:20:11;;;;;;;2.80;1.32;;;16.00;99.90;;;;;;1910483;74;21576;-77
2023/04/25 12:23:04;;;;;;;3.00;1.37;;;16.10;99.90;;;;;;1910949;74;21105;-77
2023/04/25 12:25:56;;;;;;;2.47;1.15;;;16.20;98.60;;;;;;1915637;74;21110;-78
2023/04/25 12:28:48;;;;;;;1.82;1.00;;;16.20;97.40;;;;;;1909938;74;21167;-79
2023/04/25 12:31:40;;;;;;;2.47;1.20;;;16.10;95.90;;;;;;1910248;74;21058;-78
2023/04/25 12:34:35;;;;;;;3.17;1.10;;;16.10;96.00;;;;;;1931419;74;21259;-77
2023/04/25 12:37:26;;;;;;;2.15;1.37;;;16.10;96.30;;;;;;1917424;74;21098;-77
2023/04/25 12:40:17;;;;;;;2.08;1.22;;;16.20;95.80;;;;;;1911879;74;21095;-79
2023/04/25 12:43:09;;;;;;;2.15;1.30;;;16.10;95.90;;;;;;1910050;74;21209;-77
2023/04/25 12:46:01;;;;;;;2.83;1.50;;;16.10;96.90;;;;;;1930069;74;21118;-77
2023/04/25 12:48:52;;;;;;;3.60;1.40;;;15.90;97.10;;;;;;1917981;74;21094;-77
2023/04/25 12:51:44;;;;;;;2.85;1.40;;;16.10;99.10;;;;;;1912630;74;21051;-77
2023/04/25 12:54:35;;;;;;;4.35;1.35;;;16.40;98.00;;;;;;1901617;74;21173;-78
2023/04/25 12:57:27;;;;;;;2.15;1.40;;;16.50;97.00;;;;;;1921582;74;21102;-77
2023/04/25 13:00:20;;;;;;;2.25;1.15;;;16.50;96.20;;;;;;1919688;74;21573;-77
2023/04/25 13:03:12;;;;;;;4.42;1.45;;;16.40;95.90;;;;;;1915395;74;21085;-77
2023/04/25 13:06:05;;;;;;;2.40;1.22;;;16.40;97.20;;;;;;1910444;74;21133;-77
2023/04/25 13:08:56;;;;;;;2.20;1.25;;;16.40;96.10;;;;;;1910210;74;21170;-77
2023/04/25 13:11:48;;;;;;;2.12;1.30;;;16.50;95.90;;;;;;1902108;74;21079;-77
2023/04/25 13:14:44;;;;;;;4.03;1.42;;;16.50;96.30;;;;;;1916238;75;21554;-77
2023/04/25 13:17:38;;;;;;;4.67;1.02;;;16.50;96.10;;;;;;1897674;75;21143;-77
2023/04/25 13:20:33;;;;;;;2.58;1.40;;;16.50;96.50;;;;;;1894127;75;21200;-78
2023/04/25 13:23:27;;;;;;;3.47;1.15;;;16.50;96.40;;;;;;1889247;75;21107;-78
2023/04/25 13:26:25;;;;;;;3.30;1.82;;;16.50;96.40;;;;;;1905484;75;21554;-77
2023/04/25 13:29:22;;;;;;;2.52;1.62;;;16.50;96.40;;;;;;1864393;76;21187;-77
2023/04/25 13:32:17;;;;;;;2.85;0.95;;;16.70;96.80;;;;;;1897914;75;21091;-78
2023/04/25 13:35:17;;;;;;;5.87;1.57;;;16.70;94.80;;;;;;1894416;75;21102;-78
2023/04/25 13:38:11;;;;;;;2.77;1.30;;;16.60;95.20;;;;;;1909602;75;21152;-78
2023/04/25 13:41:07;;;;;;;2.98;1.35;;;16.60;94.80;;;;;;1905723;75;21127;-78
2023/04/25 13:44:00;;;;;;;2.58;1.10;;;16.70;94.20;;;;;;1864756;76;21055;-77
2023/04/25 13:46:53;;;;;;;3.85;1.35;;;16.60;93.30;;;;;;1898291;75;21117;-77
2023/04/25 13:49:46;;;;;;;1.55;1.10;;;16.70;93.60;;;;;;1894129;75;21114;-77
2023/04/25 13:52:41;;;;;;;2.75;1.30;;;16.90;93.80;;;;;;1888014;75;21100;-77
2023/04/25 13:55:33;;;;;;;2.27;0.85;;;17.20;93.60;;;;;;1887028;74;21089;-78
2023/04/25 13:58:27;;;;;;;2.40;1.10;;;17.30;93.70;;;;;;1901635;75;21164;-77
2023/04/25 14:01:21;;;;;;;2.20;1.10;;;17.50;93.80;;;;;;1884063;75;21185;-78
2023/04/25 14:04:14;;;;;;;3.20;1.20;;;17.90;93.40;;;;;;1904839;75;21194;-77
2023/04/25 14:07:06;;;;;;;3.55;1.15;;;18.50;92.40;;;;;;1885529;75;21166;-78
2023/04/25 14:10:05;;;;;;;8.13;1.20;;;18.80;90.50;;;;;;1897606;75;21143;-78
2023/04/25 14:13:00;;;;;;;2.75;1.20;;;19.00;89.20;;;;;;1925405;74;21188;-78
2023/04/25 14:15:55;;;;;;;1.72;1.12;;;18.90;88.20;;;;;;1899110;74;21096;-79
2023/04/25 14:18:47;;;;;;;2.40;0.90;;;18.70;88.90;;;;;;1906881;74;21320;-78
2023/04/25 14:21:46;;;;;;;2.17;1.25;;;18.70;88.60;;;;;;1909753;74;21120;-78
2023/04/25 14:24:39;;;;;;;2.33;1.15;;;18.90;89.00;;;;;;1932193;74;21099;-77
2023/04/25 14:27:35;;;;;;;2.30;1.25;;;19.00;86.80;;;;;;1915336;74;21580;-79
2023/04/25 14:30:30;;;;;;;3.85;1.25;;;18.90;86.40;;;;;;1911295;74;21106;-79
2023/04/25 14:33:24;;;;;;;2.50;1.10;;;19.10;85.80;;;;;;1909955;74;21116;-78
2023/04/25 14:36:18;;;;;;;2.60;1.00;;;19.50;84.40;;;;;;1909743;74;21109;-77
2023/04/25 14:39:14;;;;;;;2.20;0.93;;;19.50;83.10;;;;;;1912202;74;21105;-77
2023/04/25 14:42:10;;;;;;;2.22;1.00;;;19.20;83.90;;;;;;1915006;74;21086;-77
2023/04/25 14:45:07;;;;;;;2.07;0.93;;;19.20;82.30;;;;;;1911248;74;21164;-77
2023/04/25 14:48:02;;;;;;;3.90;1.20;;;19.20;82.90;;;;;;1902221;74;21610;-77
2023/04/25 14:50:56;;;;;;;1.77;1.00;;;19.40;83.60;;;;;;1921421;74;21098;-78
2023/04/25 14:53:50;;;;;;;2.10;0.90;;;19.40;81.60;;;;;;1919490;74;21089;-78
2023/04/25 14:56:44;;;;;;;1.98;0.68;;;19.50;81.20;;;;;;1916331;74;21126;-77
2023/04/25 14:59:37;;;;;;;2.40;1.17;;;18.90;81.70;;;;;;1910471;74;21098;-77
2023/04/25 15:02:32;;;;;;;3.65;1.07;;;18.70;81.90;;;;;;1910375;74;21087;-77
2023/04/25 15:05:28;;;;;;;2.15;1.10;;;18.40;81.40;;;;;;1909746;74;21187;-77
2023/04/25 15:08:22;;;;;;;3.33;0.90;;;18.20;83.00;;;;;;1912235;74;21232;-77
2023/04/25 15:11:16;;;;;;;2.02;0.90;;;18.20;84.50;;;;;;1915285;74;21098;-77
2023/04/25 15:14:11;;;;;;;3.42;1.00;;;19.10;82.80;;;;;;1899518;75;21118;-78
2023/04/25 15:17:05;;;;;;;2.10;0.85;;;19.30;81.20;;;;;;1882061;75;21048;-78
2023/04/25 15:20:00;;;;;;;2.95;0.80;;;19.30;80.60;;;;;;1882148;75;21101;-77
2023/04/25 15:22:55;;;;;;;2.95;1.20;;;19.70;78.80;;;;;;1884547;75;21194;-77
2023/04/25 15:25:48;;;;;;;1.87;0.93;;;19.90;77.80;;;;;;1885640;75;21555;-77
2023/04/25 15:28:44;;;;;;;3.98;1.00;;;20.50;76.00;;;;;;1882267;75;21133;-78
2023/04/25 15:31:37;;;;;;;3.40;1.02;;;21.30;75.20;;;;;;1881793;75;21210;-78
2023/04/25 15:34:29;;;;;;;1.57;0.88;;;22.00;71.20;;;;;;1897811;74;21117;-78
2023/04/25 15:37:22;;;;;;;2.77;0.90;;;21.30;69.80;;;;;;1851933;77;21127;-77
2023/04/25 15:40:17;;;;;;;1.77;1.10;;;21.20;70.50;;;;;;1833434;77;21164;-78
2023/04/25 15:43:14;;;;;;;1.82;0.98;;;22.10;69.90;;;;;;1891300;75;21102;-77
2023/04/25 15:46:26;;;;;;;1.15;0.93;;;21.80;68.10;;;;;;1895349;75;21168;-78